Time;durP1;ratioP1;P1;durP2;ratioP2;P2;SDS_P1;SDS_P2;PMS_P1;PMS_P2;Temp;Humidity;BMP_temperature;BMP_pressure;BME280_temperature;BME280_humidity;BME280_pressure;Samples;Min_cycle;Max_cycle;Signal;HPM_P1;HPM_P2
2021/12/21 00:00:19;;;;;;;38.25;18.48;;;-2.40;99.90;;;;;;5078018;28;20041;-66
2021/12/21 00:02:48;;;;;;;37.15;18.77;;;-2.30;99.90;;;;;;5059566;28;20063;-66
2021/12/21 00:05:19;;;;;;;36.53;20.13;;;-2.40;99.90;;;;;;5059972;28;20452;-67
2021/12/21 00:07:46;;;;;;;35.28;18.70;;;-2.20;99.90;;;;;;5060472;28;20041;-65
2021/12/21 00:10:12;;;;;;;33.42;18.35;;;-2.40;99.90;;;;;;5077922;28;20117;-66
2021/12/21 00:12:47;;;;;;;28.55;16.80;;;-2.40;99.90;;;;;;5059705;28;20052;-65
2021/12/21 00:15:24;;;;;;;35.22;15.50;;;-2.40;99.90;;;;;;5059840;28;20048;-65
2021/12/21 00:17:57;;;;;;;27.90;14.68;;;-2.40;99.90;;;;;;5060321;28;20118;-65
2021/12/21 00:20:44;;;;;;;29.35;14.60;;;-2.20;99.90;;;;;;5060190;28;20045;-64
2021/12/21 00:25:54;;;;;;;18.70;13.05;;;-2.40;99.90;;;;;;5059686;28;20060;-65
2021/12/21 00:28:19;;;;;;;22.48;13.38;;;-2.50;99.90;;;;;;5077677;28;20131;-66
2021/12/21 00:30:45;;;;;;;22.27;14.45;;;-2.50;99.90;;;;;;5059744;28;20040;-66
2021/12/21 00:33:10;;;;;;;26.30;13.43;;;-2.50;99.90;;;;;;5058911;28;20068;-65
2021/12/21 00:35:36;;;;;;;21.02;13.75;;;-2.50;99.90;;;;;;5077351;28;20425;-66
2021/12/21 00:38:04;;;;;;;27.30;13.65;;;-2.50;99.90;;;;;;5077250;28;20120;-65
2021/12/21 00:40:31;;;;;;;24.48;13.82;;;-2.50;99.90;;;;;;5077271;28;20090;-65
2021/12/21 00:42:57;;;;;;;23.63;14.00;;;-2.50;99.90;;;;;;5077100;28;20036;-65
2021/12/21 00:45:23;;;;;;;20.90;12.55;;;-2.50;99.90;;;;;;5076948;28;20341;-66
2021/12/21 00:47:49;;;;;;;20.17;12.80;;;-2.60;99.90;;;;;;5059397;28;20055;-65
2021/12/21 00:50:17;;;;;;;20.35;13.85;;;-2.60;99.90;;;;;;5077020;28;20131;-66
2021/12/21 00:52:53;;;;;;;21.30;13.07;;;-2.60;99.90;;;;;;5058378;28;20113;-67
2021/12/21 00:55:21;;;;;;;20.92;13.15;;;-2.60;99.90;;;;;;5058850;28;20051;-65
2021/12/21 00:57:47;;;;;;;20.73;12.55;;;-2.60;99.90;;;;;;5059805;28;20052;-65
2021/12/21 01:00:15;;;;;;;21.02;12.63;;;-2.70;99.90;;;;;;5058912;28;20044;-65
2021/12/21 01:02:44;;;;;;;22.70;12.93;;;-2.70;99.90;;;;;;5076553;28;20052;-65
2021/12/21 01:05:37;;;;;;;24.20;13.82;;;-2.80;99.90;;;;;;5076327;28;20071;-66
2021/12/21 01:08:05;;;;;;;20.40;12.25;;;-2.70;99.90;;;;;;5059071;28;20044;-66
2021/12/21 01:13:11;;;;;;;23.00;12.40;;;-2.80;99.90;;;;;;5076038;28;20052;-65
2021/12/21 01:18:15;;;;;;;22.17;12.30;;;-2.70;99.90;;;;;;5076623;28;20056;-66
2021/12/21 01:21:02;;;;;;;16.30;11.27;;;-2.60;99.90;;;;;;5059139;28;20094;-66
2021/12/21 01:23:48;;;;;;;23.63;12.27;;;-2.50;99.90;;;;;;5075351;28;20040;-65
2021/12/21 01:26:26;;;;;;;24.63;12.30;;;-2.80;99.90;;;;;;5058554;28;20048;-66
2021/12/21 01:29:13;;;;;;;18.77;12.13;;;-2.80;99.90;;;;;;5076470;28;20115;-67
2021/12/21 01:31:55;;;;;;;18.75;12.40;;;-2.80;99.90;;;;;;5076250;28;20127;-66
2021/12/21 01:34:38;;;;;;;21.17;12.15;;;-2.80;99.90;;;;;;5057815;28;20044;-65
2021/12/21 01:37:56;;;;;;;20.05;11.65;;;-2.90;99.90;;;;;;5059168;28;20044;-66
2021/12/21 01:40:01;;;;;;;21.98;12.07;;;-2.90;99.90;;;;;;5065013;28;20110;-65
2021/12/21 01:42:40;;;;;;;19.83;11.30;;;-2.80;99.90;;;;;;5040955;28;20044;-66
2021/12/21 01:50:40;;;;;;;17.70;10.40;;;-3.00;99.90;;;;;;5058006;28;20080;-66
2021/12/21 01:53:06;;;;;;;21.40;10.95;;;-2.80;99.90;;;;;;5057964;28;20084;-66
2021/12/21 01:55:31;;;;;;;17.05;11.68;;;-2.90;99.90;;;;;;5075520;28;20507;-66
2021/12/21 01:57:57;;;;;;;18.15;10.52;;;-2.90;99.90;;;;;;5058398;28;20463;-66
2021/12/21 02:00:23;;;;;;;19.60;11.40;;;-2.90;99.90;;;;;;5075532;28;20063;-64
2021/12/21 02:02:48;;;;;;;21.98;11.05;;;-2.90;99.90;;;;;;5074719;28;20039;-65
2021/12/21 02:05:14;;;;;;;17.48;11.30;;;-2.80;99.90;;;;;;5075735;28;20051;-65
2021/12/21 02:07:39;;;;;;;20.90;11.40;;;-1.90;99.90;;;;;;5058105;28;20063;-67
2021/12/21 02:10:06;;;;;;;16.58;11.48;;;-3.00;99.90;;;;;;5057049;28;20052;-66
2021/12/21 02:12:31;;;;;;;18.13;10.88;;;-3.00;99.90;;;;;;5057915;28;20091;-65
2021/12/21 02:14:59;;;;;;;18.60;11.68;;;-3.00;99.90;;;;;;5075721;28;20440;-66
2021/12/21 02:20:56;;;;;;;16.02;10.77;;;-3.00;99.90;;;;;;5075094;28;20405;-65
2021/12/21 02:23:22;;;;;;;21.33;12.40;;;-3.00;99.90;;;;;;5071623;28;20056;-65
2021/12/21 02:28:45;;;;;;;21.05;12.73;;;-3.00;99.90;;;;;;5057492;28;20446;-64
2021/12/21 02:31:09;;;;;;;21.13;12.25;;;-3.00;99.90;;;;;;5074614;28;20052;-64
2021/12/21 02:33:35;;;;;;;25.70;13.32;;;-3.00;99.90;;;;;;5075781;28;20060;-64
2021/12/21 02:36:02;;;;;;;20.23;12.32;;;-3.10;99.90;;;;;;5075080;28;20048;-66
2021/12/21 02:38:28;;;;;;;20.80;11.90;;;-3.10;99.90;;;;;;5075524;28;20044;-66
2021/12/21 02:40:55;;;;;;;26.35;12.80;;;-1.80;99.90;;;;;;5074533;28;20047;-65
2021/12/21 02:43:21;;;;;;;20.35;13.07;;;-3.10;99.90;;;;;;5074818;28;20566;-67
2021/12/21 02:45:46;;;;;;;18.35;12.63;;;-3.10;99.90;;;;;;5041201;28;20098;-65
2021/12/21 02:48:14;;;;;;;18.88;12.52;;;-3.10;99.90;;;;;;5074919;28;20257;-67
2021/12/21 02:50:41;;;;;;;21.48;11.52;;;-3.10;99.90;;;;;;5074607;28;20068;-65
2021/12/21 02:53:08;;;;;;;21.35;12.05;;;-3.10;99.90;;;;;;5058806;28;20052;-66
2021/12/21 02:55:34;;;;;;;24.10;12.45;;;-3.10;99.90;;;;;;5057352;28;20056;-64
2021/12/21 02:58:03;;;;;;;17.60;11.82;;;-3.10;99.90;;;;;;5074708;28;20475;-65
2021/12/21 03:00:30;;;;;;;23.95;11.95;;;-3.10;99.90;;;;;;5074087;28;20052;-65
2021/12/21 03:03:06;;;;;;;21.85;11.68;;;-3.20;99.90;;;;;;5074707;28;20051;-67
2021/12/21 03:05:31;;;;;;;18.65;11.32;;;-2.40;99.90;;;;;;5074586;28;20117;-66
2021/12/21 03:10:25;;;;;;;18.75;10.88;;;-3.20;99.90;;;;;;5056060;28;20128;-66
2021/12/21 03:15:22;;;;;;;17.83;11.43;;;-3.20;99.90;;;;;;5078324;28;20087;-66
2021/12/21 03:17:48;;;;;;;21.75;11.15;;;-3.20;99.90;;;;;;5078541;28;20048;-67
2021/12/21 03:20:14;;;;;;;21.40;10.68;;;-2.20;99.90;;;;;;5078248;28;20372;-65
2021/12/21 03:22:40;;;;;;;17.02;11.45;;;-3.30;99.90;;;;;;5061067;28;20041;-65
2021/12/21 03:25:07;;;;;;;17.85;10.98;;;-3.20;99.90;;;;;;5060598;28;20058;-66
2021/12/21 03:27:35;;;;;;;16.92;10.75;;;-3.30;99.90;;;;;;5078378;28;20181;-65
2021/12/21 03:30:03;;;;;;;17.48;9.88;;;-3.30;99.90;;;;;;5078922;28;20040;-67
2021/12/21 03:32:29;;;;;;;17.95;10.48;;;-3.30;99.90;;;;;;5061073;28;20052;-66
2021/12/21 03:34:55;;;;;;;16.13;10.18;;;-3.30;99.90;;;;;;5060223;28;20064;-66
2021/12/21 03:37:24;;;;;;;15.65;10.20;;;-3.30;99.90;;;;;;5078448;28;20037;-67
2021/12/21 03:39:52;;;;;;;17.42;11.00;;;-3.30;99.90;;;;;;5044090;28;20059;-64
2021/12/21 03:42:18;;;;;;;18.85;10.63;;;-3.30;99.90;;;;;;5077868;28;20356;-65
2021/12/21 03:44:44;;;;;;;18.27;10.63;;;-3.30;99.90;;;;;;5060127;28;20480;-64
2021/12/21 03:47:15;;;;;;;18.50;10.95;;;-3.30;99.90;;;;;;5078335;28;20084;-65
2021/12/21 03:52:19;;;;;;;17.90;11.20;;;-3.40;99.90;;;;;;5061782;28;20052;-67
2021/12/21 03:54:53;;;;;;;24.30;12.40;;;-3.40;99.90;;;;;;5077712;28;20052;-66
2021/12/21 03:57:19;;;;;;;21.70;11.70;;;-3.40;99.90;;;;;;5078195;28;20045;-65
2021/12/21 03:59:49;;;;;;;18.15;11.45;;;-3.40;99.90;;;;;;5059903;28;20055;-65
2021/12/21 04:02:15;;;;;;;19.00;12.07;;;-3.40;99.90;;;;;;5060055;28;20060;-66
2021/12/21 04:04:44;;;;;;;22.38;12.57;;;-3.40;99.90;;;;;;5077862;28;20048;-66
2021/12/21 04:07:11;;;;;;;19.13;11.55;;;-2.80;99.90;;;;;;5077784;28;20084;-66
2021/12/21 04:09:36;;;;;;;20.55;11.32;;;-3.40;99.90;;;;;;5060207;28;20036;-65
2021/12/21 04:12:03;;;;;;;21.92;12.60;;;-3.50;99.90;;;;;;5059665;28;20097;-66
2021/12/21 04:14:30;;;;;;;19.38;12.02;;;-3.50;99.90;;;;;;5077633;28;20041;-65
2021/12/21 04:17:01;;;;;;;18.63;11.45;;;-3.40;99.90;;;;;;5077846;28;20044;-65
2021/12/21 04:19:30;;;;;;;20.33;12.32;;;-3.50;99.90;;;;;;5076906;28;20123;-65
2021/12/21 04:21:55;;;;;;;21.00;12.15;;;-3.50;99.90;;;;;;5076570;28;20041;-64
2021/12/21 04:24:21;;;;;;;17.83;11.48;;;-3.50;99.90;;;;;;5059644;28;20048;-66
2021/12/21 04:26:47;;;;;;;17.77;11.30;;;-3.50;99.90;;;;;;5077687;28;20049;-64
2021/12/21 04:29:13;;;;;;;18.13;11.48;;;-3.50;99.90;;;;;;5059925;28;20059;-66
2021/12/21 04:31:39;;;;;;;17.17;11.45;;;-3.50;99.90;;;;;;5059346;28;20056;-65
2021/12/21 04:34:04;;;;;;;18.13;11.35;;;-3.50;99.90;;;;;;5077385;28;20112;-65
2021/12/21 04:36:30;;;;;;;23.15;11.98;;;-3.50;99.90;;;;;;5059149;28;20048;-64
2021/12/21 04:39:03;;;;;;;21.98;12.52;;;-3.50;99.90;;;;;;5077270;28;20364;-64
2021/12/21 04:41:28;;;;;;;19.27;11.57;;;-3.60;99.90;;;;;;5077085;28;20088;-65
2021/12/21 04:43:56;;;;;;;20.60;12.07;;;-3.40;99.90;;;;;;5077284;28;20076;-66
2021/12/21 04:46:25;;;;;;;16.65;11.27;;;-3.60;99.90;;;;;;5076928;28;20338;-65
2021/12/21 04:48:52;;;;;;;18.83;12.18;;;-3.60;99.90;;;;;;5059257;28;20040;-67
2021/12/21 04:51:19;;;;;;;20.27;11.80;;;-3.60;99.90;;;;;;5059294;28;20102;-65
2021/12/21 04:53:47;;;;;;;17.92;12.40;;;-3.60;99.90;;;;;;5070078;28;20064;-65
2021/12/21 04:56:16;;;;;;;19.58;12.25;;;-3.60;99.90;;;;;;5059156;28;20052;-66
2021/12/21 04:58:41;;;;;;;18.13;12.15;;;-3.60;99.90;;;;;;5077119;28;20136;-67
2021/12/21 05:01:07;;;;;;;22.35;13.10;;;-3.60;99.90;;;;;;5076677;28;20040;-65
2021/12/21 05:03:32;;;;;;;22.45;12.43;;;-3.70;99.90;;;;;;5095094;28;20456;-65
2021/12/21 05:06:01;;;;;;;23.52;12.13;;;-2.90;99.90;;;;;;5079057;28;20059;-65
2021/12/21 05:08:32;;;;;;;17.90;11.38;;;-3.60;99.90;;;;;;5097201;28;20437;-65
2021/12/21 05:11:05;;;;;;;21.70;12.13;;;-3.30;99.90;;;;;;5079125;28;20048;-64
2021/12/21 05:13:35;;;;;;;17.77;11.50;;;-3.60;99.90;;;;;;5096094;28;20051;-66
2021/12/21 05:16:05;;;;;;;19.55;11.85;;;-3.60;99.90;;;;;;5078722;28;20095;-64
2021/12/21 05:18:32;;;;;;;18.42;12.05;;;-3.60;99.90;;;;;;5096414;28;20436;-66
2021/12/21 05:20:59;;;;;;;17.45;11.55;;;-3.60;99.90;;;;;;5096203;28;20145;-64
2021/12/21 05:23:25;;;;;;;19.88;12.70;;;-3.60;99.90;;;;;;5093263;28;20040;-66
2021/12/21 05:25:57;;;;;;;21.65;11.98;;;-3.70;99.90;;;;;;5096242;28;20044;-66
2021/12/21 05:28:23;;;;;;;23.58;11.93;;;-3.70;99.90;;;;;;5092452;28;20186;-64
2021/12/21 05:30:48;;;;;;;19.90;11.75;;;-3.70;99.90;;;;;;5058793;28;20098;-65
2021/12/21 05:33:15;;;;;;;21.23;12.10;;;-3.70;99.90;;;;;;5058474;28;20053;-65
2021/12/21 05:35:43;;;;;;;22.52;12.68;;;-3.70;99.90;;;;;;5058015;28;20052;-67
2021/12/21 05:38:12;;;;;;;22.90;13.15;;;-3.70;99.90;;;;;;5057981;28;20083;-65
2021/12/21 05:40:43;;;;;;;20.83;13.85;;;-3.70;99.90;;;;;;5080399;28;20119;-66
2021/12/21 05:43:10;;;;;;;25.92;13.85;;;-3.50;99.90;;;;;;5096397;28;20051;-66
2021/12/21 05:45:37;;;;;;;23.88;13.43;;;-3.70;99.90;;;;;;5078671;28;20087;-66
2021/12/21 05:48:03;;;;;;;22.60;12.88;;;-3.70;99.90;;;;;;5061476;28;20090;-66
2021/12/21 05:50:29;;;;;;;22.98;14.38;;;-3.70;99.90;;;;;;5078067;28;20048;-65
2021/12/21 05:52:54;;;;;;;19.60;13.07;;;-3.70;99.90;;;;;;5079386;28;20433;-66
2021/12/21 05:55:21;;;;;;;25.40;13.45;;;-3.70;99.90;;;;;;5055299;28;20111;-65
2021/12/21 05:57:47;;;;;;;25.30;13.25;;;-3.70;99.90;;;;;;5038512;28;20076;-67
2021/12/21 06:00:23;;;;;;;22.15;13.13;;;-3.80;99.90;;;;;;5064279;28;20048;-64
2021/12/21 06:02:49;;;;;;;23.27;13.38;;;-3.80;99.90;;;;;;5058289;28;20048;-66
2021/12/21 06:05:14;;;;;;;19.25;12.73;;;-3.80;99.90;;;;;;5075533;28;20357;-65
2021/12/21 06:07:40;;;;;;;20.75;13.88;;;-3.80;99.90;;;;;;5075332;28;20128;-65
2021/12/21 06:10:17;;;;;;;18.27;13.00;;;-3.80;99.90;;;;;;5075173;28;20048;-66
2021/12/21 06:15:21;;;;;;;30.17;14.05;;;-3.80;99.90;;;;;;5038070;28;20118;-66
2021/12/21 06:23:57;;;;;;;21.77;12.70;;;-3.80;99.90;;;;;;5060910;28;20122;-66
2021/12/21 06:26:17;;;;;;;20.15;13.00;;;-3.80;99.90;;;;;;5047098;28;20053;-65
2021/12/21 06:28:45;;;;;;;27.80;12.88;;;-3.80;99.90;;;;;;5061958;28;20044;-65
2021/12/21 06:31:11;;;;;;;21.88;12.52;;;-3.70;99.90;;;;;;5074051;28;20044;-64
2021/12/21 06:33:38;;;;;;;24.08;13.32;;;-3.00;99.90;;;;;;5074223;28;20132;-66
2021/12/21 06:36:05;;;;;;;26.02;13.23;;;-3.70;99.90;;;;;;5050584;28;20037;-64
2021/12/21 06:38:31;;;;;;;22.45;13.20;;;-3.70;99.90;;;;;;5049616;28;20068;-66
2021/12/21 06:40:57;;;;;;;18.48;12.75;;;-3.70;99.90;;;;;;5044263;28;20456;-65
2021/12/21 06:43:23;;;;;;;21.60;13.45;;;-3.70;99.90;;;;;;5034131;28;20040;-64
2021/12/21 06:46:07;;;;;;;19.65;11.77;;;-3.70;99.90;;;;;;5060983;28;20048;-65
2021/12/21 06:51:44;;;;;;;19.13;11.23;;;-3.80;99.90;;;;;;5045979;28;20020;-65
2021/12/21 06:54:09;;;;;;;17.23;10.80;;;-3.80;99.90;;;;;;5056182;28;20099;-64
2021/12/21 06:56:35;;;;;;;19.15;11.50;;;-3.80;99.90;;;;;;5056600;28;20076;-66
2021/12/21 06:59:01;;;;;;;20.10;11.90;;;-3.80;99.90;;;;;;5074066;28;20456;-66
2021/12/21 07:01:28;;;;;;;20.98;11.77;;;-3.90;99.90;;;;;;5050078;28;20045;-65
2021/12/21 07:03:54;;;;;;;18.10;11.40;;;-3.80;99.90;;;;;;5043999;28;20106;-65
2021/12/21 07:06:21;;;;;;;23.20;11.82;;;-3.90;99.90;;;;;;5045886;28;20055;-63
2021/12/21 07:08:54;;;;;;;20.65;12.25;;;-3.90;99.90;;;;;;5050068;28;20053;-66
2021/12/21 07:19:21;;;;;;;21.25;13.20;;;-3.90;99.90;;;;;;5056621;28;20088;-66
2021/12/21 07:21:47;;;;;;;24.63;13.63;;;-4.00;99.90;;;;;;5053973;28;20073;-65
2021/12/21 07:24:12;;;;;;;19.42;11.73;;;-4.00;99.90;;;;;;5050986;28;20059;-64
2021/12/21 07:26:38;;;;;;;23.20;12.52;;;-4.00;99.90;;;;;;5039736;28;20053;-65
2021/12/21 07:29:05;;;;;;;25.92;12.98;;;-4.00;99.90;;;;;;5044668;28;20045;-65
2021/12/21 07:31:30;;;;;;;20.17;13.00;;;-4.00;99.90;;;;;;5053201;28;20041;-65
2021/12/21 07:33:58;;;;;;;21.25;12.90;;;-4.00;99.90;;;;;;5050828;28;20106;-64
2021/12/21 07:36:24;;;;;;;25.92;12.98;;;-3.90;99.90;;;;;;5050119;28;20132;-65
2021/12/21 07:38:49;;;;;;;18.85;12.98;;;-3.90;99.90;;;;;;5051490;28;20372;-65
2021/12/21 07:41:15;;;;;;;22.13;13.48;;;-3.80;99.90;;;;;;5047350;28;20052;-64
2021/12/21 07:43:41;;;;;;;18.08;12.68;;;-3.80;99.90;;;;;;5053799;28;20036;-65
2021/12/21 07:46:06;;;;;;;23.92;12.95;;;-3.80;99.90;;;;;;5056469;28;20045;-64
2021/12/21 07:48:32;;;;;;;22.25;13.00;;;-3.80;99.90;;;;;;5048738;28;20369;-65
2021/12/21 07:50:58;;;;;;;21.83;13.48;;;-3.70;99.90;;;;;;5053599;28;20115;-66
2021/12/21 07:53:24;;;;;;;22.17;13.00;;;-3.70;99.90;;;;;;5064917;28;20048;-64
2021/12/21 07:55:49;;;;;;;20.63;12.77;;;-3.70;99.90;;;;;;5062051;28;20444;-65
2021/12/21 07:58:15;;;;;;;21.75;13.05;;;-3.80;99.90;;;;;;5056523;28;20059;-65
2021/12/21 08:00:41;;;;;;;25.27;12.55;;;-3.80;99.90;;;;;;5065211;28;20067;-66
2021/12/21 08:03:07;;;;;;;20.63;12.48;;;-3.80;99.90;;;;;;5079351;28;20071;-66
2021/12/21 08:05:34;;;;;;;21.17;12.25;;;-3.80;99.90;;;;;;5065083;28;20044;-65
2021/12/21 08:08:11;;;;;;;21.08;13.93;;;-3.80;99.90;;;;;;5067024;28;20383;-66
2021/12/21 08:10:43;;;;;;;21.85;13.20;;;-3.70;99.90;;;;;;5093103;28;20389;-66
2021/12/21 08:13:09;;;;;;;22.55;12.55;;;-3.70;99.90;;;;;;5064680;28;20049;-67
2021/12/21 08:15:35;;;;;;;24.95;13.68;;;-3.70;99.90;;;;;;5071402;28;20105;-66
2021/12/21 08:18:00;;;;;;;19.90;13.55;;;-3.70;99.90;;;;;;5077451;28;20044;-65
2021/12/21 08:20:27;;;;;;;26.42;13.80;;;-3.70;99.90;;;;;;5065618;28;20048;-65
2021/12/21 08:22:53;;;;;;;46.00;24.75;;;-3.60;99.90;;;;;;5080672;28;20349;-65
2021/12/21 08:25:24;;;;;;;70.97;38.20;;;-3.60;99.90;;;;;;5043160;28;20048;-66
2021/12/21 08:27:57;;;;;;;82.93;42.22;;;-3.50;99.90;;;;;;5096201;28;20386;-67
2021/12/21 08:30:23;;;;;;;66.03;35.67;;;-3.50;99.90;;;;;;5061378;28;20048;-64
2021/12/21 08:32:49;;;;;;;58.53;32.45;;;-3.50;99.90;;;;;;5077122;28;20510;-66
2021/12/21 08:35:15;;;;;;;63.83;33.70;;;-3.50;99.90;;;;;;5070598;28;20128;-66
2021/12/21 08:37:52;;;;;;;51.20;30.27;;;-2.90;99.90;;;;;;5090908;28;20059;-66
2021/12/21 08:40:22;;;;;;;39.53;22.02;;;-3.50;99.90;;;;;;5062197;28;20052;-65
2021/12/21 08:42:50;;;;;;;31.80;18.25;;;-3.50;99.90;;;;;;5095996;28;20497;-67
2021/12/21 08:45:17;;;;;;;31.95;18.63;;;-3.40;99.90;;;;;;5095483;28;20040;-64
2021/12/21 08:47:43;;;;;;;29.02;18.42;;;-3.50;99.90;;;;;;5074355;28;20051;-65
2021/12/21 08:50:10;;;;;;;36.53;17.95;;;-3.40;99.90;;;;;;5096330;28;20044;-67
2021/12/21 08:52:37;;;;;;;32.60;18.75;;;-3.30;99.90;;;;;;5078123;28;20067;-64
2021/12/21 08:55:09;;;;;;;26.25;16.73;;;-3.30;99.90;;;;;;5078080;28;20048;-66
2021/12/21 08:57:36;;;;;;;34.80;17.63;;;-3.20;99.90;;;;;;5074240;28;20102;-67
2021/12/21 09:00:05;;;;;;;30.42;16.30;;;-3.20;99.90;;;;;;5078374;28;20459;-67
2021/12/21 09:02:35;;;;;;;30.33;17.98;;;-3.10;99.90;;;;;;5078322;28;20082;-65
2021/12/21 09:05:00;;;;;;;29.95;16.88;;;-3.10;99.90;;;;;;5078450;28;20044;-65
2021/12/21 09:07:26;;;;;;;29.10;17.83;;;-3.10;99.90;;;;;;5063850;28;20079;-67
2021/12/21 09:09:54;;;;;;;32.05;18.40;;;-3.00;99.90;;;;;;5077731;28;20119;-65
2021/12/21 09:12:19;;;;;;;35.13;18.15;;;-3.00;99.90;;;;;;5066037;28;20511;-66
2021/12/21 09:14:45;;;;;;;27.83;18.92;;;-2.90;99.90;;;;;;5093224;28;20127;-67
2021/12/21 09:17:10;;;;;;;33.05;19.20;;;-2.90;99.90;;;;;;5062244;28;20055;-66
2021/12/21 09:19:36;;;;;;;32.63;19.70;;;-2.90;99.90;;;;;;5087354;28;20070;-66
2021/12/21 09:22:01;;;;;;;25.45;17.58;;;-2.90;99.90;;;;;;5067811;28;20439;-66
2021/12/21 09:24:29;;;;;;;29.70;19.10;;;-2.80;99.90;;;;;;5077910;28;20463;-67
2021/12/21 09:26:54;;;;;;;32.67;19.60;;;-2.80;99.90;;;;;;5067356;28;20121;-66
2021/12/21 09:29:20;;;;;;;31.85;19.20;;;-2.60;99.90;;;;;;5040918;28;20435;-63
2021/12/21 09:31:45;;;;;;;29.73;19.98;;;-2.80;99.90;;;;;;5058087;28;20364;-65
2021/12/21 09:34:11;;;;;;;35.20;20.35;;;-2.70;99.90;;;;;;5081194;28;20083;-65
2021/12/21 09:36:37;;;;;;;33.30;20.92;;;-2.70;99.90;;;;;;5078280;28;20047;-64
2021/12/21 09:39:02;;;;;;;36.35;21.95;;;-2.70;99.90;;;;;;5077870;28;20058;-65
2021/12/21 09:41:28;;;;;;;35.53;20.88;;;-2.70;99.90;;;;;;5095835;28;20058;-65
2021/12/21 09:43:54;;;;;;;32.95;21.05;;;-2.60;99.90;;;;;;5095370;28;20127;-65
2021/12/21 09:46:19;;;;;;;33.17;21.75;;;-2.60;99.90;;;;;;5078055;28;20056;-65
2021/12/21 09:48:45;;;;;;;35.08;20.63;;;-2.60;99.90;;;;;;5095005;28;20646;-65
2021/12/21 09:51:11;;;;;;;35.08;18.98;;;-2.50;99.90;;;;;;5077830;28;20043;-67
2021/12/21 09:53:37;;;;;;;38.92;21.05;;;-2.50;99.90;;;;;;5082258;28;20055;-67
2021/12/21 09:56:06;;;;;;;35.00;20.23;;;-2.40;99.90;;;;;;5055437;28;20057;-64
2021/12/21 09:58:32;;;;;;;33.30;21.25;;;-2.40;99.90;;;;;;5037786;28;20087;-65
2021/12/21 10:00:58;;;;;;;35.42;21.45;;;-2.40;99.90;;;;;;5058133;28;20083;-66
2021/12/21 10:03:24;;;;;;;33.15;20.90;;;-2.30;99.90;;;;;;5067945;28;20060;-66
2021/12/21 10:05:49;;;;;;;35.35;20.80;;;-2.30;99.90;;;;;;5055427;28;20135;-65
2021/12/21 10:08:19;;;;;;;33.30;21.55;;;-1.80;99.90;;;;;;5054931;28;20477;-65
2021/12/21 10:10:53;;;;;;;35.90;21.05;;;-2.20;99.90;;;;;;5054355;28;20055;-67
2021/12/21 10:13:21;;;;;;;33.72;20.17;;;-2.20;99.90;;;;;;5037100;28;20044;-67
2021/12/21 10:15:55;;;;;;;36.80;19.40;;;-2.10;99.90;;;;;;5053909;28;20049;-65
2021/12/21 10:18:34;;;;;;;32.88;19.98;;;-2.10;99.90;;;;;;5054672;28;21055;-67
2021/12/21 10:21:04;;;;;;;40.13;20.75;;;-2.00;99.90;;;;;;5056139;28;20053;-67
2021/12/21 10:23:33;;;;;;;38.38;20.45;;;-2.00;99.90;;;;;;5073591;28;20037;-68
2021/12/21 10:26:13;;;;;;;34.10;20.05;;;-1.30;99.90;;;;;;5056374;28;20109;-68
2021/12/21 10:28:48;;;;;;;35.72;19.95;;;-1.80;99.90;;;;;;5073921;28;20083;-67
2021/12/21 10:31:39;;;;;;;34.42;19.40;;;-1.80;99.90;;;;;;5073896;28;20055;-67
2021/12/21 10:34:10;;;;;;;33.75;19.77;;;-1.70;99.90;;;;;;5074779;28;20048;-67
2021/12/21 10:37:03;;;;;;;40.72;20.23;;;-1.70;99.90;;;;;;5056259;28;20048;-68
2021/12/21 10:39:31;;;;;;;33.55;19.35;;;-1.50;99.90;;;;;;5067583;28;20044;-65
2021/12/21 10:42:00;;;;;;;35.05;20.70;;;-1.60;99.90;;;;;;5044821;28;20083;-65
2021/12/21 10:44:26;;;;;;;39.75;20.98;;;-1.50;99.90;;;;;;5056302;28;20052;-66
2021/12/21 10:46:53;;;;;;;30.42;19.25;;;-1.40;99.90;;;;;;5074074;28;20044;-67
2021/12/21 10:49:23;;;;;;;34.75;18.92;;;-0.90;99.90;;;;;;5073460;28;20041;-68
2021/12/21 10:51:52;;;;;;;36.28;18.20;;;-1.40;99.90;;;;;;5055935;28;20048;-66
2021/12/21 10:54:27;;;;;;;30.35;18.15;;;-1.40;99.90;;;;;;5074059;28;20071;-66
2021/12/21 10:57:00;;;;;;;31.95;17.63;;;-1.30;99.90;;;;;;5056286;28;20075;-68
2021/12/21 10:59:34;;;;;;;32.95;17.35;;;-1.30;99.90;;;;;;5055835;28;20044;-67
2021/12/21 11:02:13;;;;;;;30.88;16.30;;;-1.30;99.90;;;;;;5038632;28;20110;-68
2021/12/21 11:04:41;;;;;;;26.92;16.20;;;-1.20;99.90;;;;;;5056195;28;20091;-67
2021/12/21 11:10:11;;;;;;;29.40;15.30;;;-1.10;99.90;;;;;;5056257;28;20059;-67
2021/12/21 11:12:48;;;;;;;26.90;15.50;;;-1.10;99.90;;;;;;5072826;28;20059;-66
2021/12/21 11:15:18;;;;;;;24.75;15.32;;;-1.00;99.90;;;;;;5056242;28;20044;-65
2021/12/21 11:17:44;;;;;;;23.38;14.00;;;-0.90;99.90;;;;;;5056508;28;20475;-67
2021/12/21 11:20:12;;;;;;;22.75;13.88;;;-0.90;99.90;;;;;;5073920;28;20049;-66
2021/12/21 11:22:39;;;;;;;24.52;13.32;;;-0.80;99.90;;;;;;5073394;28;20337;-67
2021/12/21 11:25:06;;;;;;;23.23;13.73;;;-0.70;99.90;;;;;;5055547;28;20105;-66
2021/12/21 11:27:34;;;;;;;26.50;12.43;;;-0.70;99.90;;;;;;5055851;28;20052;-68
2021/12/21 11:30:02;;;;;;;21.17;12.05;;;-0.70;99.90;;;;;;5073396;28;20095;-68
2021/12/21 11:32:30;;;;;;;25.60;12.57;;;-0.70;99.90;;;;;;5055923;28;20464;-65
2021/12/21 11:37:43;;;;;;;22.23;11.88;;;-0.40;99.90;;;;;;5059584;28;20049;-66
2021/12/21 11:40:14;;;;;;;18.55;11.40;;;-0.60;99.90;;;;;;5059144;28;20052;-65
2021/12/21 11:42:59;;;;;;;17.42;11.50;;;-0.50;99.90;;;;;;4979089;28;20065;-66
2021/12/21 11:45:34;;;;;;;24.10;11.43;;;-0.50;99.90;;;;;;4995897;28;20053;-67
2021/12/21 11:48:09;;;;;;;17.55;11.30;;;-0.40;99.90;;;;;;4995919;28;20054;-67
2021/12/21 11:50:36;;;;;;;20.08;10.82;;;-0.40;99.90;;;;;;4979184;28;20117;-67
2021/12/21 11:53:05;;;;;;;21.77;11.07;;;-0.30;99.90;;;;;;5003384;28;20052;-67
2021/12/21 11:55:33;;;;;;;20.17;11.90;;;0.00;99.90;;;;;;4999044;28;20050;-66
2021/12/21 11:58:12;;;;;;;18.23;11.30;;;-0.20;99.90;;;;;;4998588;28;20096;-65
2021/12/21 12:00:44;;;;;;;18.83;11.88;;;-0.20;99.90;;;;;;4998385;28;20046;-68
2021/12/21 12:03:13;;;;;;;17.38;11.15;;;-0.20;99.90;;;;;;4998636;28;20061;-65
2021/12/21 12:05:49;;;;;;;20.95;11.60;;;-0.10;99.90;;;;;;5014797;28;20129;-67
2021/12/21 12:08:14;;;;;;;20.08;10.40;;;-0.10;99.90;;;;;;4996513;28;20194;-67
2021/12/21 12:11:07;;;;;;;20.88;11.60;;;-0.10;99.90;;;;;;4998435;28;20382;-66
2021/12/21 12:13:37;;;;;;;23.25;10.38;;;0.00;99.90;;;;;;5020005;28;20056;-67
2021/12/21 12:16:08;;;;;;;22.45;9.88;;;0.00;99.90;;;;;;5093153;28;20057;-68
2021/12/21 12:18:40;;;;;;;15.70;10.00;;;0.10;99.90;;;;;;5075539;28;20211;-65
2021/12/21 12:21:17;;;;;;;20.45;8.73;;;0.30;99.90;;;;;;5075463;28;20055;-67
2021/12/21 12:23:54;;;;;;;14.75;9.07;;;0.20;99.90;;;;;;5074312;28;20037;-68
2021/12/21 12:26:39;;;;;;;18.90;10.07;;;0.20;99.90;;;;;;5055503;28;20117;-67
2021/12/21 12:29:19;;;;;;;16.85;10.18;;;0.30;99.90;;;;;;5056996;28;20423;-67
2021/12/21 12:32:09;;;;;;;17.35;9.23;;;0.30;99.90;;;;;;5072941;28;20086;-66
2021/12/21 12:34:36;;;;;;;18.40;9.02;;;0.30;99.90;;;;;;5075792;28;20048;-67
2021/12/21 12:37:21;;;;;;;14.93;7.28;;;0.40;99.90;;;;;;5074146;28;20399;-65
2021/12/21 12:39:50;;;;;;;16.80;8.32;;;0.40;99.90;;;;;;5073354;28;20431;-65
2021/12/21 12:42:24;;;;;;;15.00;8.45;;;0.40;99.90;;;;;;5074506;28;20125;-66
2021/12/21 12:45:10;;;;;;;15.75;7.90;;;0.50;99.90;;;;;;5076653;28;20047;-66
2021/12/21 12:47:41;;;;;;;15.45;7.75;;;0.50;99.90;;;;;;5076882;28;20048;-65
2021/12/21 12:50:19;;;;;;;14.82;7.85;;;0.50;99.90;;;;;;5065670;28;20049;-66
2021/12/21 12:53:03;;;;;;;18.02;7.50;;;0.50;99.90;;;;;;5067293;28;20052;-66
2021/12/21 12:55:37;;;;;;;15.63;7.38;;;0.80;99.90;;;;;;5081353;28;20071;-64
2021/12/21 12:58:11;;;;;;;16.92;7.47;;;0.60;99.90;;;;;;5058801;28;20053;-68
2021/12/21 13:00:37;;;;;;;16.25;7.90;;;0.60;99.90;;;;;;5064835;28;20501;-66
2021/12/21 13:03:09;;;;;;;12.45;7.00;;;0.60;99.90;;;;;;5061258;28;20044;-67
2021/12/21 13:05:40;;;;;;;14.85;7.85;;;0.60;99.90;;;;;;5096545;28;20363;-66
2021/12/21 13:08:17;;;;;;;15.30;6.63;;;0.70;99.90;;;;;;5078944;28;20044;-66
2021/12/21 13:10:49;;;;;;;14.55;6.93;;;0.70;99.90;;;;;;5077962;28;20117;-66
2021/12/21 13:13:15;;;;;;;18.25;7.57;;;0.70;99.90;;;;;;5078679;28;20092;-67
2021/12/21 13:15:50;;;;;;;15.93;8.15;;;0.70;99.90;;;;;;5096914;28;20055;-68
2021/12/21 13:18:18;;;;;;;12.90;6.97;;;0.70;99.90;;;;;;5095727;28;20064;-65
2021/12/21 13:20:48;;;;;;;11.05;6.80;;;0.80;99.90;;;;;;5096918;28;20393;-66
2021/12/21 13:23:18;;;;;;;15.93;8.13;;;0.80;99.90;;;;;;5095734;28;20052;-64
2021/12/21 13:25:53;;;;;;;13.63;7.97;;;0.80;99.90;;;;;;5078175;28;20039;-64
2021/12/21 13:28:19;;;;;;;13.18;7.38;;;0.80;99.90;;;;;;5078315;28;20511;-66
2021/12/21 13:30:47;;;;;;;16.73;7.22;;;0.80;99.90;;;;;;5095964;28;20126;-63